createdAt,value
2018-08-12T00:00:09.097Z,9.03
2018-08-12T00:02:37.593Z,11.70
2018-08-12T00:05:06.336Z,10.10
2018-08-12T00:07:35.305Z,11.00
2018-08-12T00:10:04.425Z,10.33
2018-08-12T00:12:32.849Z,11.17
2018-08-12T00:15:01.292Z,10.33
2018-08-12T00:17:29.691Z,11.30
2018-08-12T00:19:58.113Z,10.00
2018-08-12T00:22:26.551Z,11.27
2018-08-12T00:24:55.044Z,9.70
2018-08-12T00:27:23.576Z,11.13
2018-08-12T00:29:52.124Z,9.80
2018-08-12T00:32:20.828Z,10.43
2018-08-12T00:34:49.246Z,10.30
2018-08-12T00:37:18.302Z,8.93
2018-08-12T00:39:47.325Z,10.63
2018-08-12T00:42:15.815Z,9.03
2018-08-12T00:44:44.287Z,9.53
2018-08-12T00:47:12.891Z,9.43
2018-08-12T00:49:41.431Z,11.40
2018-08-12T00:52:09.896Z,9.20
2018-08-12T00:54:38.375Z,11.00
2018-08-12T00:57:06.909Z,8.97
2018-08-12T00:59:35.568Z,10.13
2018-08-12T01:02:04.063Z,8.73
2018-08-12T01:04:32.631Z,9.80
2018-08-12T01:07:01.184Z,9.20
2018-08-12T01:09:29.708Z,10.17
2018-08-12T01:11:58.246Z,8.97
2018-08-12T01:14:26.898Z,9.70
2018-08-12T01:16:55.358Z,8.33
2018-08-12T01:19:23.890Z,8.77
2018-08-12T01:21:52.399Z,8.67
2018-08-12T01:24:21.857Z,8.90
2018-08-12T01:26:50.314Z,9.20
2018-08-12T01:29:18.713Z,9.13
2018-08-12T01:31:47.602Z,8.87
2018-08-12T01:34:16.055Z,8.30
2018-08-12T01:36:44.654Z,10.17
2018-08-12T01:39:13.119Z,9.40
2018-08-12T01:41:41.603Z,10.23
2018-08-12T01:44:10.026Z,8.80
2018-08-12T01:46:38.577Z,9.90
2018-08-12T01:49:07.186Z,9.33
2018-08-12T01:51:35.764Z,9.67
2018-08-12T01:54:04.332Z,10.00
2018-08-12T01:56:32.739Z,11.63
2018-08-12T01:59:01.135Z,8.80
2018-08-12T02:01:29.591Z,9.97
2018-08-12T02:03:58.083Z,9.03
2018-08-12T02:06:27.114Z,8.93
2018-08-12T02:08:55.679Z,8.90
2018-08-12T02:11:24.595Z,9.07
2018-08-12T02:13:53.084Z,8.93
2018-08-12T02:16:21.637Z,9.33
2018-08-12T02:18:50.121Z,8.50
2018-08-12T02:21:18.527Z,8.77
2018-08-12T02:23:47.124Z,10.50
2018-08-12T02:26:15.515Z,9.40
2018-08-12T02:28:44.001Z,10.93
2018-08-12T02:31:12.412Z,9.33
2018-08-12T02:33:40.984Z,10.43
2018-08-12T02:36:09.440Z,9.77
2018-08-12T02:38:37.942Z,9.50
2018-08-12T02:41:06.376Z,8.60
2018-08-12T02:43:34.893Z,9.57
2018-08-12T02:46:03.636Z,8.77
2018-08-12T02:48:32.322Z,9.40
2018-08-12T02:51:00.725Z,8.67
2018-08-12T02:53:29.570Z,9.50
2018-08-12T02:55:58.020Z,8.57
2018-08-12T02:58:26.515Z,8.80
2018-08-12T03:00:55.045Z,9.37
2018-08-12T03:03:23.427Z,9.00
2018-08-12T03:05:51.811Z,9.60
2018-08-12T03:08:20.208Z,8.80
2018-08-12T03:10:48.623Z,10.40
2018-08-12T03:13:17.057Z,8.27
2018-08-12T03:15:45.661Z,9.87
2018-08-12T03:18:14.060Z,9.10
2018-08-12T03:20:42.525Z,9.97
2018-08-12T03:23:10.957Z,8.90
2018-08-12T03:25:39.403Z,11.90
2018-08-12T03:28:07.822Z,8.30
2018-08-12T03:30:36.372Z,9.10
2018-08-12T03:33:05.455Z,8.67
2018-08-12T03:35:34.299Z,8.50
2018-08-12T03:38:02.876Z,8.83
2018-08-12T03:40:31.605Z,8.60
2018-08-12T03:43:00.043Z,8.13
2018-08-12T03:45:28.468Z,9.13
2018-08-12T03:47:56.868Z,8.43
2018-08-12T03:50:25.465Z,8.33
2018-08-12T03:52:53.886Z,9.80
2018-08-12T03:55:22.540Z,8.20
2018-08-12T03:57:50.979Z,10.17
2018-08-12T04:00:19.977Z,9.63
2018-08-12T04:02:49.372Z,9.50
2018-08-12T04:05:18.801Z,8.60
2018-08-12T04:07:47.625Z,9.50
2018-08-12T04:10:16.049Z,7.60
2018-08-12T04:12:44.638Z,10.10
2018-08-12T04:15:13.367Z,8.73
2018-08-12T04:17:42.111Z,9.30
2018-08-12T04:20:11.607Z,7.97
2018-08-12T04:22:40.004Z,7.90
2018-08-12T04:25:08.719Z,9.07
2018-08-12T04:27:37.312Z,8.50
2018-08-12T04:30:07.662Z,8.13
2018-08-12T04:32:36.506Z,8.33
2018-08-12T04:35:05.888Z,8.30
2018-08-12T04:37:34.315Z,8.40
2018-08-12T04:40:02.800Z,8.00
2018-08-12T04:42:31.530Z,7.77
2018-08-12T04:45:00.702Z,9.33
2018-08-12T04:47:29.190Z,8.53
2018-08-12T04:49:57.613Z,9.70
2018-08-12T04:52:26.108Z,8.40
2018-08-12T04:54:54.665Z,9.67
2018-08-12T04:57:23.051Z,8.73
2018-08-12T04:59:51.649Z,11.30
2018-08-12T05:02:20.070Z,8.17
2018-08-12T05:04:48.624Z,8.63
2018-08-12T05:07:23.704Z,8.47
2018-08-12T05:09:52.328Z,9.87
2018-08-12T05:12:20.819Z,8.83
2018-08-12T05:14:49.369Z,8.90
2018-08-12T05:17:17.789Z,8.00
2018-08-12T05:19:46.348Z,8.60
2018-08-12T05:22:14.789Z,8.47
2018-08-12T05:24:43.815Z,7.63
2018-08-12T05:27:12.544Z,8.50
2018-08-12T05:29:41.136Z,8.77
2018-08-12T05:32:09.571Z,8.87
2018-08-12T05:34:38.007Z,8.23
2018-08-12T05:37:06.508Z,8.77
2018-08-12T05:39:35.103Z,8.73
2018-08-12T05:42:03.649Z,9.87
2018-08-12T05:44:32.079Z,8.60
2018-08-12T05:47:00.739Z,9.03
2018-08-12T05:49:29.235Z,8.00
2018-08-12T05:51:57.772Z,9.53
2018-08-12T05:54:26.210Z,9.10
2018-08-12T05:56:54.717Z,9.10
2018-08-12T05:59:23.335Z,8.67
2018-08-12T06:01:51.995Z,9.33
2018-08-12T06:04:20.395Z,8.57
2018-08-12T06:06:48.875Z,8.40
2018-08-12T06:09:17.287Z,8.00
2018-08-12T06:11:46.591Z,9.13
2018-08-12T06:14:14.999Z,7.60
2018-08-12T06:16:43.538Z,8.67
2018-08-12T06:19:12.147Z,8.40
2018-08-12T06:21:40.618Z,8.60
2018-08-12T06:24:09.069Z,10.00
2018-08-12T06:26:37.645Z,8.67
2018-08-12T06:29:06.687Z,10.53
2018-08-12T06:31:35.198Z,8.97
2018-08-12T06:34:03.611Z,9.50
2018-08-12T06:36:32.183Z,8.70
2018-08-12T06:39:00.915Z,12.00
2018-08-12T06:41:29.489Z,8.80
2018-08-12T06:43:58.504Z,11.43
2018-08-12T06:46:27.023Z,9.03
2018-08-12T06:48:55.615Z,9.83
2018-08-12T06:51:24.196Z,8.67
2018-08-12T06:53:52.662Z,8.17
2018-08-12T06:56:21.104Z,8.47
2018-08-12T06:58:49.815Z,8.43
2018-08-12T07:01:18.254Z,8.27
2018-08-12T07:03:46.784Z,8.90
2018-08-12T07:06:15.215Z,8.33
2018-08-12T07:08:43.645Z,9.40
2018-08-12T07:11:12.050Z,10.70
2018-08-12T07:13:40.651Z,9.30
2018-08-12T07:16:09.201Z,9.90
2018-08-12T07:18:37.647Z,8.80
2018-08-12T07:21:06.201Z,10.00
2018-08-12T07:23:34.627Z,8.80
2018-08-12T07:26:03.071Z,11.30
2018-08-12T07:28:31.615Z,9.00
2018-08-12T07:31:00.102Z,8.90
2018-08-12T07:33:28.728Z,9.60
2018-08-12T07:35:57.271Z,9.33
2018-08-12T07:38:25.771Z,8.90
2018-08-12T07:40:54.558Z,8.67
2018-08-12T07:43:23.016Z,9.13
2018-08-12T07:45:51.544Z,9.17
2018-08-12T07:48:20.044Z,9.30
2018-08-12T07:50:48.448Z,8.80
2018-08-12T07:53:16.963Z,9.90
2018-08-12T07:55:45.510Z,7.90
2018-08-12T07:58:14.125Z,10.30
2018-08-12T08:00:42.541Z,8.67
2018-08-12T08:03:11.100Z,9.10
2018-08-12T08:05:39.537Z,8.90
2018-08-12T08:08:08.045Z,11.80
2018-08-12T08:10:36.574Z,9.20
2018-08-12T08:13:05.336Z,10.30
2018-08-12T08:15:33.890Z,8.23
2018-08-12T08:18:02.371Z,8.83
2018-08-12T08:20:30.907Z,8.73
2018-08-12T08:22:59.488Z,8.90
2018-08-12T08:25:28.004Z,9.50
2018-08-12T08:27:56.804Z,9.20
2018-08-12T08:30:25.215Z,9.00
2018-08-12T08:32:53.887Z,8.50
2018-08-12T08:35:22.396Z,9.43
2018-08-12T08:37:50.984Z,9.67
2018-08-12T08:40:19.902Z,9.20
2018-08-12T08:42:48.331Z,7.70
2018-08-12T08:45:20.195Z,9.50
2018-08-12T08:47:50.082Z,8.40
2018-08-12T08:50:20.326Z,10.07
2018-08-12T08:52:49.047Z,7.97
2018-08-12T08:55:18.000Z,8.10
2018-08-12T08:57:47.293Z,7.67
2018-08-12T09:00:18.868Z,9.13
2018-08-12T09:02:49.898Z,7.07
2018-08-12T09:05:18.986Z,8.23
2018-08-12T09:07:47.774Z,6.13
2018-08-12T09:10:17.557Z,7.30
2018-08-12T09:12:46.196Z,6.07
2018-08-12T09:15:16.907Z,8.23
2018-08-12T09:17:47.014Z,5.97
2018-08-12T09:20:16.711Z,7.70
2018-08-12T09:22:45.940Z,5.90
2018-08-12T09:25:14.707Z,6.97
2018-08-12T09:27:43.208Z,5.57
2018-08-12T09:30:15.794Z,6.10
2018-08-12T09:32:45.043Z,5.53
2018-08-12T09:35:13.551Z,6.67
2018-08-12T09:37:42.433Z,5.30
2018-08-12T09:40:12.978Z,6.50
2018-08-12T09:42:42.795Z,5.53
2018-08-12T09:45:14.004Z,5.80
2018-08-12T09:47:42.525Z,5.60
2018-08-12T09:50:12.410Z,6.20
2018-08-12T09:52:41.503Z,4.70
2018-08-12T09:55:10.897Z,6.10
2018-08-12T09:57:39.335Z,4.93
2018-08-12T10:00:10.783Z,4.80
2018-08-12T10:02:39.184Z,5.20
2018-08-12T10:05:07.890Z,4.73
2018-08-12T10:07:36.529Z,5.10
2018-08-12T10:10:05.708Z,4.43
2018-08-12T10:12:34.165Z,4.70
2018-08-12T10:15:03.025Z,4.90
2018-08-12T10:17:31.888Z,5.00
2018-08-12T10:20:00.372Z,4.83
2018-08-12T10:22:29.245Z,4.70
2018-08-12T10:24:57.696Z,4.70
2018-08-12T10:27:26.508Z,6.43
2018-08-12T10:29:55.013Z,5.00
2018-08-12T10:32:24.288Z,5.50
2018-08-12T10:34:52.958Z,4.00
2018-08-12T10:37:22.047Z,6.00
2018-08-12T10:39:50.542Z,4.53
2018-08-12T10:42:19.154Z,5.50
2018-08-12T10:44:47.783Z,4.53
2018-08-12T10:47:16.350Z,4.73
2018-08-12T10:49:44.765Z,5.03
2018-08-12T10:52:13.253Z,4.00
2018-08-12T10:54:41.971Z,5.10
2018-08-12T10:57:10.716Z,4.60
2018-08-12T10:59:39.372Z,4.57
2018-08-12T11:02:08.433Z,4.20
2018-08-12T11:04:36.980Z,5.00
2018-08-12T11:07:05.678Z,5.53
2018-08-12T11:09:34.382Z,4.20
2018-08-12T11:12:02.887Z,4.47
2018-08-12T11:14:31.355Z,4.60
2018-08-12T11:16:59.824Z,4.50
2018-08-12T11:19:28.278Z,5.70
2018-08-12T11:21:56.820Z,4.30
2018-08-12T11:24:25.440Z,5.80
2018-08-12T11:26:53.941Z,4.37
2018-08-12T11:29:22.364Z,5.70
2018-08-12T11:31:50.787Z,4.37
2018-08-12T11:34:19.299Z,4.60
2018-08-12T11:36:47.827Z,4.23
2018-08-12T11:39:16.386Z,4.67
2018-08-12T11:41:44.824Z,4.30
2018-08-12T11:44:13.338Z,4.00
2018-08-12T11:46:41.828Z,4.40
2018-08-12T11:49:10.911Z,4.60
2018-08-12T11:51:39.394Z,4.27
2018-08-12T11:54:08.214Z,4.00
2018-08-12T11:56:36.943Z,4.20
2018-08-12T11:59:05.361Z,4.23
2018-08-12T12:01:37.017Z,4.73
2018-08-12T12:04:05.522Z,3.90
2018-08-12T12:06:34.287Z,5.43
2018-08-12T12:09:02.765Z,4.07
2018-08-12T12:11:31.327Z,5.80
2018-08-12T12:13:59.746Z,4.30
2018-08-12T12:16:28.298Z,5.60
2018-08-12T12:18:56.800Z,4.03
2018-08-12T12:21:26.150Z,6.67
2018-08-12T12:23:54.709Z,3.83
2018-08-12T12:26:23.940Z,4.23
2018-08-12T12:28:52.554Z,3.60
2018-08-12T12:31:21.036Z,4.03
2018-08-12T12:33:49.970Z,4.00
2018-08-12T12:36:18.377Z,3.80
2018-08-12T12:38:46.892Z,4.00
2018-08-12T12:41:15.650Z,3.60
2018-08-12T12:43:44.103Z,3.20
2018-08-12T12:46:12.796Z,3.70
2018-08-12T12:48:41.351Z,3.77
2018-08-12T12:51:09.922Z,3.60
2018-08-12T12:53:38.415Z,3.93
2018-08-12T12:56:07.020Z,3.43
2018-08-12T12:58:35.523Z,6.10
2018-08-12T13:01:03.977Z,3.50
2018-08-12T13:03:32.635Z,5.10
2018-08-12T13:06:01.181Z,3.80
2018-08-12T13:08:29.831Z,5.17
2018-08-12T13:10:58.263Z,3.53
2018-08-12T13:13:26.685Z,3.80
2018-08-12T13:15:55.139Z,3.70
2018-08-12T13:18:23.807Z,3.67
2018-08-12T13:20:52.483Z,3.70
2018-08-12T13:23:21.020Z,3.50
2018-08-12T13:25:49.456Z,3.30
2018-08-12T13:28:18.930Z,3.70
2018-08-12T13:30:47.367Z,4.10
2018-08-12T13:33:16.264Z,3.80
2018-08-12T13:35:44.675Z,4.13
2018-08-12T13:38:13.211Z,3.67
2018-08-12T13:40:41.645Z,3.90
2018-08-12T13:43:10.112Z,4.07
2018-08-12T13:45:39.164Z,5.07
2018-08-12T13:48:07.699Z,3.53
2018-08-12T13:50:36.229Z,5.10
2018-08-12T13:53:04.694Z,3.87
2018-08-12T13:55:33.112Z,5.10
2018-08-12T13:58:01.576Z,3.57
2018-08-12T14:00:30.127Z,5.87
2018-08-12T14:02:58.558Z,3.47
2018-08-12T14:05:27.230Z,6.00
2018-08-12T14:07:55.823Z,3.80
2018-08-12T14:10:24.876Z,3.97
2018-08-12T14:12:53.344Z,3.87
2018-08-12T14:15:22.359Z,3.47
2018-08-12T14:17:51.556Z,4.20
2018-08-12T14:20:21.060Z,3.37
2018-08-12T14:22:49.765Z,3.83
2018-08-12T14:25:18.320Z,4.20
2018-08-12T14:27:46.942Z,3.97
2018-08-12T14:30:17.503Z,3.77
2018-08-12T14:32:46.960Z,3.80
2018-08-12T14:35:15.539Z,3.90
2018-08-12T14:37:44.147Z,4.20
2018-08-12T14:40:13.509Z,3.90
2018-08-12T14:42:42.196Z,5.60
2018-08-12T14:45:12.506Z,4.27
2018-08-12T14:47:41.556Z,5.40
2018-08-12T14:50:14.903Z,4.00
2018-08-12T14:52:43.718Z,6.43
2018-08-12T14:55:13.163Z,3.70
2018-08-12T14:57:42.734Z,5.33
2018-08-12T15:00:21.124Z,4.10
2018-08-12T15:02:51.159Z,4.07
2018-08-12T15:05:26.554Z,3.97
2018-08-12T15:07:54.959Z,4.23
2018-08-12T15:10:24.024Z,4.23
2018-08-12T15:12:52.571Z,4.00
2018-08-12T15:15:21.321Z,4.10
2018-08-12T15:17:49.769Z,4.50
2018-08-12T15:20:18.360Z,4.13
2018-08-12T15:22:46.781Z,4.70
2018-08-12T15:25:18.109Z,4.13
2018-08-12T15:27:46.974Z,5.20
2018-08-12T15:30:15.585Z,4.33
2018-08-12T15:32:44.183Z,5.93
2018-08-12T15:35:12.631Z,4.23
2018-08-12T15:37:41.501Z,5.90
2018-08-12T15:40:13.632Z,3.83
2018-08-12T15:42:43.366Z,5.70
2018-08-12T15:45:14.091Z,4.17
2018-08-12T15:47:43.346Z,5.80
2018-08-12T15:50:12.516Z,4.60
2018-08-12T15:52:42.375Z,5.47
2018-08-12T15:55:11.231Z,4.50
2018-08-12T15:57:40.532Z,5.20
2018-08-12T16:00:17.072Z,4.33
2018-08-12T16:02:46.555Z,5.70
2018-08-12T16:05:15.104Z,4.53
2018-08-12T16:07:44.423Z,5.93
2018-08-12T16:10:15.666Z,4.20
2018-08-12T16:12:44.699Z,5.97
2018-08-12T16:15:13.460Z,5.37
2018-08-12T16:17:42.679Z,5.60
2018-08-12T16:20:11.911Z,4.60
2018-08-12T16:22:40.376Z,5.90
2018-08-12T16:25:12.596Z,5.17
2018-08-12T16:27:41.511Z,5.93
2018-08-12T16:30:11.395Z,4.23
2018-08-12T16:32:39.856Z,7.10
2018-08-12T16:35:10.054Z,4.37
2018-08-12T16:37:38.615Z,4.70
2018-08-12T16:40:09.017Z,4.53
2018-08-12T16:42:37.520Z,6.37
2018-08-12T16:45:06.888Z,4.40
2018-08-12T16:47:35.623Z,6.30
2018-08-12T16:50:05.093Z,4.20
2018-08-12T16:52:33.765Z,5.30
2018-08-12T16:55:02.304Z,4.70
2018-08-12T16:57:31.552Z,5.20
2018-08-12T17:00:00.160Z,4.80
2018-08-12T17:02:29.134Z,5.20
2018-08-12T17:04:57.590Z,4.50
2018-08-12T17:07:26.480Z,5.00
2018-08-12T17:09:55.092Z,5.00
2018-08-12T17:12:24.105Z,4.57
2018-08-12T17:14:52.698Z,5.73
2018-08-12T17:17:21.196Z,5.17
2018-08-12T17:19:49.721Z,6.33
2018-08-12T17:22:18.207Z,4.73
2018-08-12T17:24:46.708Z,6.80
2018-08-12T17:27:15.300Z,4.70
2018-08-12T17:29:44.584Z,6.50
2018-08-12T17:32:13.132Z,5.90
2018-08-12T17:34:41.648Z,4.50
2018-08-12T17:37:10.877Z,4.90
2018-08-12T17:39:39.507Z,5.30
2018-08-12T17:42:07.985Z,5.00
2018-08-12T17:44:36.439Z,4.93
2018-08-12T17:47:04.983Z,5.10
2018-08-12T17:49:34.600Z,5.07
2018-08-12T17:52:03.497Z,4.97
2018-08-12T17:54:32.256Z,5.33
2018-08-12T17:57:00.900Z,5.70
2018-08-12T17:59:29.312Z,5.07
2018-08-12T18:01:58.022Z,4.80
2018-08-12T18:04:26.579Z,5.17
2018-08-12T18:06:55.139Z,7.63
2018-08-12T18:09:23.708Z,5.00
2018-08-12T18:11:52.228Z,5.83
2018-08-12T18:14:20.812Z,5.10
2018-08-12T18:16:49.319Z,6.33
2018-08-12T18:19:18.087Z,4.13
2018-08-12T18:21:46.977Z,6.27
2018-08-12T18:24:15.470Z,5.20
2018-08-12T18:26:43.999Z,6.37
2018-08-12T18:29:12.445Z,5.10
2018-08-12T18:31:40.872Z,5.13
2018-08-12T18:34:09.388Z,4.73
2018-08-12T18:36:38.568Z,5.10
2018-08-12T18:39:09.328Z,5.20
2018-08-12T18:41:38.526Z,5.77
2018-08-12T18:44:07.507Z,5.17
2018-08-12T18:46:36.723Z,5.03
2018-08-12T18:49:05.576Z,5.67
2018-08-12T18:51:34.173Z,5.30
2018-08-12T18:54:02.903Z,4.97
2018-08-12T18:56:31.399Z,5.27
2018-08-12T18:58:59.933Z,6.50
2018-08-12T19:01:28.400Z,5.13
2018-08-12T19:03:57.272Z,6.70
2018-08-12T19:06:25.718Z,5.03
2018-08-12T19:08:54.362Z,6.70
2018-08-12T19:11:23.240Z,5.00
2018-08-12T19:13:51.773Z,7.20
2018-08-12T19:16:20.356Z,5.23
2018-08-12T19:18:48.803Z,7.67
2018-08-12T19:21:17.534Z,4.70
2018-08-12T19:23:46.004Z,5.70
2018-08-12T19:26:14.462Z,5.63
2018-08-12T19:28:43.114Z,5.67
2018-08-12T19:31:11.529Z,5.37
2018-08-12T19:33:40.403Z,6.03
2018-08-12T19:36:09.171Z,6.00
2018-08-12T19:38:37.635Z,5.60
2018-08-12T19:41:06.158Z,5.90
2018-08-12T19:43:34.870Z,5.87
2018-08-12T19:46:03.336Z,6.93
2018-08-12T19:48:31.866Z,6.30
2018-08-12T19:51:00.562Z,6.83
2018-08-12T19:53:29.846Z,6.43
2018-08-12T19:55:58.495Z,7.53
2018-08-12T19:58:27.059Z,6.03
2018-08-12T20:00:56.240Z,6.90
2018-08-12T20:03:24.707Z,5.60
2018-08-12T20:05:53.257Z,6.07
2018-08-12T20:08:21.880Z,6.00
2018-08-12T20:10:50.540Z,6.30
2018-08-12T20:13:19.000Z,6.10
2018-08-12T20:15:47.627Z,6.13
2018-08-12T20:18:16.156Z,5.83
2018-08-12T20:20:45.225Z,6.60
2018-08-12T20:23:13.652Z,5.70
2018-08-12T20:25:42.161Z,6.63
2018-08-12T20:28:10.679Z,6.63
2018-08-12T20:30:39.327Z,6.10
2018-08-12T20:33:07.863Z,6.60
2018-08-12T20:35:36.418Z,6.60
2018-08-12T20:38:05.018Z,7.27
2018-08-12T20:40:33.644Z,5.80
2018-08-12T20:43:02.076Z,8.00
2018-08-12T20:45:30.734Z,6.60
2018-08-12T20:47:59.239Z,9.93
2018-08-12T20:50:27.659Z,6.80
2018-08-12T20:52:56.557Z,9.53
2018-08-12T20:55:25.141Z,6.13
2018-08-12T20:57:53.746Z,7.63
2018-08-12T21:00:22.324Z,7.80
2018-08-12T21:02:50.906Z,6.77
2018-08-12T21:05:19.425Z,6.50
2018-08-12T21:07:48.155Z,7.10
2018-08-12T21:10:16.597Z,6.43
2018-08-12T21:12:45.044Z,6.10
2018-08-12T21:15:13.496Z,7.03
2018-08-12T21:17:41.956Z,7.13
2018-08-12T21:20:10.800Z,8.17
2018-08-12T21:22:39.716Z,6.30
2018-08-12T21:25:08.539Z,8.23
2018-08-12T21:27:37.895Z,6.90
2018-08-12T21:30:06.904Z,8.60
2018-08-12T21:32:35.447Z,8.30
2018-08-12T21:35:03.995Z,8.30
2018-08-12T21:37:32.451Z,7.20
2018-08-12T21:40:01.124Z,6.80
2018-08-12T21:42:29.534Z,6.53
2018-08-12T21:44:58.133Z,6.63
2018-08-12T21:47:26.682Z,7.23
2018-08-12T21:49:55.212Z,6.60
2018-08-12T21:52:23.885Z,6.23
2018-08-12T21:54:53.124Z,6.90
2018-08-12T21:57:21.559Z,6.53
2018-08-12T21:59:50.018Z,6.90
2018-08-12T22:02:18.496Z,5.83
2018-08-12T22:04:47.059Z,6.57
2018-08-12T22:07:15.545Z,7.00
2018-08-12T22:09:43.983Z,6.60
2018-08-12T22:12:12.572Z,7.90
2018-08-12T22:14:41.279Z,7.80
2018-08-12T22:17:09.702Z,8.50
2018-08-12T22:19:38.220Z,6.53
2018-08-12T22:22:06.721Z,8.47
2018-08-12T22:24:35.297Z,6.57
2018-08-12T22:27:03.802Z,8.33
2018-08-12T22:29:32.231Z,7.30
2018-08-12T22:32:00.699Z,7.47
2018-08-12T22:34:29.232Z,7.20
2018-08-12T22:36:58.123Z,6.70
2018-08-12T22:39:26.584Z,7.17
2018-08-12T22:41:55.315Z,6.70
2018-08-12T22:44:23.776Z,7.47
2018-08-12T22:46:52.247Z,7.17
2018-08-12T22:49:20.732Z,7.67
2018-08-12T22:51:49.316Z,7.67
2018-08-12T22:54:17.723Z,8.57
2018-08-12T22:56:46.285Z,7.10
2018-08-12T22:59:15.046Z,8.60
2018-08-12T23:01:43.548Z,7.73
2018-08-12T23:04:12.215Z,9.03
2018-08-12T23:06:40.761Z,8.10
2018-08-12T23:09:09.999Z,9.27
2018-08-12T23:11:39.026Z,8.00
2018-08-12T23:14:08.367Z,9.23
2018-08-12T23:16:48.127Z,7.43
2018-08-12T23:19:16.611Z,9.10
2018-08-12T23:21:45.161Z,7.60
2018-08-12T23:24:14.227Z,9.03
2018-08-12T23:26:42.769Z,7.30
2018-08-12T23:29:11.317Z,9.73
2018-08-12T23:31:40.525Z,8.10
2018-08-12T23:34:10.133Z,8.60
2018-08-12T23:36:38.751Z,7.80
2018-08-12T23:39:09.570Z,8.00
2018-08-12T23:41:38.399Z,8.10
2018-08-12T23:44:07.864Z,8.50
2018-08-12T23:46:36.689Z,7.27
2018-08-12T23:49:05.408Z,8.00
2018-08-12T23:51:33.980Z,7.97
2018-08-12T23:54:02.838Z,8.40
2018-08-12T23:56:31.271Z,7.93
2018-08-12T23:58:59.720Z,6.70
